createdAt,value
2023-03-18T00:02:03.304Z,4.22
2023-03-18T00:04:30.775Z,4.19
2023-03-18T00:06:58.852Z,4.45
2023-03-18T00:09:26.614Z,4.57
2023-03-18T00:11:54.160Z,4.40
2023-03-18T00:14:21.217Z,4.34
2023-03-18T00:16:48.707Z,4.29
2023-03-18T00:19:15.828Z,4.33
2023-03-18T00:21:43.347Z,4.15
2023-03-18T00:24:11.969Z,4.19
2023-03-18T00:26:39.444Z,4.13
2023-03-18T00:29:06.563Z,3.74
2023-03-18T00:31:33.902Z,3.68
2023-03-18T00:34:01.066Z,3.84
2023-03-18T00:36:28.336Z,4.05
2023-03-18T00:38:59.639Z,3.98
2023-03-18T00:41:30.738Z,3.85
2023-03-18T00:43:58.269Z,3.53
2023-03-18T00:46:26.422Z,3.45
2023-03-18T00:49:07.859Z,3.54
2023-03-18T00:51:37.381Z,3.53
2023-03-18T00:54:07.413Z,3.54
2023-03-18T00:56:36.852Z,3.55
2023-03-18T00:59:04.769Z,3.34
2023-03-18T01:01:33.998Z,3.13
2023-03-18T01:04:01.994Z,3.08
2023-03-18T01:06:31.494Z,3.44
2023-03-18T01:08:58.899Z,3.46
2023-03-18T01:11:26.556Z,3.46
2023-03-18T01:13:53.832Z,3.34
2023-03-18T01:16:22.069Z,3.02
2023-03-18T01:18:49.412Z,3.44
2023-03-18T01:21:18.090Z,3.76
2023-03-18T01:23:53.431Z,3.64
2023-03-18T01:26:20.772Z,3.32
2023-03-18T01:28:48.126Z,3.21
2023-03-18T01:31:15.653Z,3.00
2023-03-18T01:33:45.037Z,3.05
2023-03-18T01:36:12.607Z,3.03
2023-03-18T01:38:41.016Z,3.10
2023-03-18T01:41:12.226Z,3.20
2023-03-18T01:43:42.922Z,3.48
2023-03-18T01:46:29.359Z,3.55
2023-03-18T01:48:57.056Z,3.76
2023-03-18T01:51:26.684Z,3.65
2023-03-18T01:53:54.558Z,3.63
2023-03-18T01:56:22.205Z,3.80
2023-03-18T01:58:55.439Z,3.86
2023-03-18T02:01:28.865Z,3.82
2023-03-18T02:03:57.586Z,3.85
2023-03-18T02:06:24.891Z,3.90
2023-03-18T02:09:00.487Z,3.91
2023-03-18T02:11:33.342Z,3.93
2023-03-18T02:14:04.212Z,3.88
2023-03-18T02:16:40.132Z,3.71
2023-03-18T02:19:30.079Z,3.44
2023-03-18T02:22:31.144Z,3.45
2023-03-18T02:25:22.175Z,3.32
2023-03-18T02:27:56.252Z,3.44
2023-03-18T02:30:31.988Z,3.38
2023-03-18T02:33:01.689Z,3.29
2023-03-18T02:35:29.976Z,3.20
2023-03-18T02:37:59.845Z,3.26
2023-03-18T02:40:33.510Z,3.28
2023-03-18T02:43:21.791Z,3.15
2023-03-18T02:46:27.126Z,3.09
2023-03-18T02:48:55.145Z,3.42
2023-03-18T02:51:23.371Z,3.57
2023-03-18T02:53:50.868Z,3.53
2023-03-18T02:56:18.559Z,3.48
2023-03-18T02:58:46.041Z,3.43
2023-03-18T03:01:14.876Z,3.35
2023-03-18T03:03:42.179Z,3.24
2023-03-18T03:06:11.211Z,3.12
2023-03-18T03:08:39.409Z,3.06
2023-03-18T03:11:07.361Z,2.92
2023-03-18T03:13:38.406Z,2.67
2023-03-18T03:16:06.034Z,2.65
2023-03-18T03:18:33.114Z,2.55
2023-03-18T03:21:00.228Z,2.75
2023-03-18T03:23:27.987Z,2.62
2023-03-18T03:25:55.038Z,2.60
2023-03-18T03:28:22.475Z,2.66
2023-03-18T03:30:50.286Z,2.75
2023-03-18T03:33:17.377Z,2.94
2023-03-18T03:35:44.515Z,2.67
2023-03-18T03:38:12.342Z,2.70
2023-03-18T03:40:39.806Z,2.63
2023-03-18T03:43:06.921Z,2.55
2023-03-18T03:45:34.636Z,2.70
2023-03-18T03:48:02.191Z,2.71
2023-03-18T03:50:29.728Z,2.66
2023-03-18T03:52:57.461Z,2.81
2023-03-18T03:55:25.605Z,2.87
2023-03-18T03:57:55.148Z,2.67
2023-03-18T04:00:24.184Z,2.50
2023-03-18T04:02:52.569Z,2.47
2023-03-18T04:05:23.540Z,2.49
2023-03-18T04:07:51.485Z,2.36
2023-03-18T04:10:22.717Z,2.38
2023-03-18T04:12:50.478Z,2.31
2023-03-18T04:15:19.923Z,2.28
2023-03-18T04:17:50.278Z,2.46
2023-03-18T04:20:18.976Z,2.28
2023-03-18T04:22:47.087Z,2.25
2023-03-18T04:25:15.734Z,2.32
2023-03-18T04:27:42.929Z,2.41
2023-03-18T04:30:13.597Z,2.59
2023-03-18T04:32:55.379Z,2.58
2023-03-18T04:35:23.453Z,2.79
2023-03-18T04:37:51.663Z,2.75
2023-03-18T04:40:20.074Z,2.94
2023-03-18T04:42:47.960Z,2.89
2023-03-18T04:45:17.712Z,3.02
2023-03-18T04:47:45.523Z,2.93
2023-03-18T04:50:14.492Z,2.92
2023-03-18T04:52:43.751Z,3.02
2023-03-18T04:55:18.072Z,2.88
2023-03-18T04:57:45.810Z,2.89
2023-03-18T05:00:18.219Z,3.00
2023-03-18T05:02:48.559Z,2.92
2023-03-18T05:05:15.978Z,3.00
2023-03-18T05:07:47.692Z,3.05
2023-03-18T05:10:18.951Z,3.13
2023-03-18T05:12:46.631Z,3.10
2023-03-18T05:15:15.771Z,3.11
2023-03-18T05:17:48.885Z,3.29
2023-03-18T05:20:16.091Z,3.32
2023-03-18T05:22:45.404Z,3.24
2023-03-18T05:25:19.180Z,3.19
2023-03-18T05:27:47.604Z,3.33
2023-03-18T05:30:32.291Z,3.55
2023-03-18T05:33:00.040Z,3.86
2023-03-18T05:35:47.633Z,4.21
2023-03-18T05:38:16.692Z,4.37
2023-03-18T05:40:43.838Z,4.58
2023-03-18T05:43:18.291Z,4.79
2023-03-18T05:45:52.482Z,5.08
2023-03-18T05:48:25.752Z,5.20
2023-03-18T05:50:58.739Z,5.34
2023-03-18T05:53:27.946Z,5.70
2023-03-18T05:56:05.334Z,6.23
2023-03-18T05:58:32.816Z,6.94
2023-03-18T06:01:15.971Z,8.07
2023-03-18T06:03:43.944Z,8.95
2023-03-18T06:06:11.543Z,9.71
2023-03-18T06:08:41.228Z,10.36
2023-03-18T06:11:08.412Z,10.86
2023-03-18T06:13:35.524Z,11.20
2023-03-18T06:16:03.899Z,11.91
2023-03-18T06:18:31.676Z,12.29
2023-03-18T06:21:00.650Z,12.88
2023-03-18T06:23:27.889Z,13.10
2023-03-18T06:25:55.612Z,12.64
2023-03-18T06:28:29.342Z,12.28
2023-03-18T06:30:59.833Z,12.46
2023-03-18T06:33:28.252Z,12.77
2023-03-18T06:35:56.179Z,13.08
2023-03-18T06:38:23.442Z,12.96
2023-03-18T06:40:51.576Z,12.84
2023-03-18T06:43:18.851Z,12.86
2023-03-18T06:45:46.423Z,13.34
2023-03-18T06:48:14.357Z,14.02
2023-03-18T06:50:44.136Z,14.65
2023-03-18T06:53:18.766Z,14.09
2023-03-18T06:55:48.488Z,14.09
2023-03-18T06:58:18.587Z,14.42
2023-03-18T07:00:59.030Z,14.50
2023-03-18T07:03:30.851Z,14.42
2023-03-18T07:05:58.185Z,14.69
2023-03-18T07:08:25.463Z,15.40
2023-03-18T07:10:56.292Z,15.46
2023-03-18T07:13:25.435Z,15.70
2023-03-18T07:15:56.602Z,16.19
2023-03-18T07:18:24.786Z,15.98
2023-03-18T07:20:52.648Z,15.67
2023-03-18T07:23:22.468Z,15.31
2023-03-18T07:25:50.015Z,15.15
2023-03-18T07:28:20.122Z,14.92
2023-03-18T07:30:47.542Z,15.42
2023-03-18T07:33:15.802Z,15.51
2023-03-18T07:35:43.827Z,15.84
2023-03-18T07:38:11.897Z,15.89
2023-03-18T07:40:39.136Z,16.19
2023-03-18T07:43:06.745Z,16.41
2023-03-18T07:45:34.737Z,16.75
2023-03-18T07:48:01.907Z,17.25
2023-03-18T07:50:29.041Z,17.61
2023-03-18T07:52:56.130Z,18.17
2023-03-18T07:55:23.572Z,18.77
2023-03-18T07:57:50.901Z,19.77
2023-03-18T08:00:18.499Z,20.00
2023-03-18T08:02:45.600Z,21.14
2023-03-18T08:05:13.787Z,20.66
2023-03-18T08:07:40.968Z,21.15
2023-03-18T08:10:09.202Z,21.76
2023-03-18T08:12:51.504Z,21.93
2023-03-18T08:15:19.744Z,22.26
2023-03-18T08:17:47.362Z,23.10
2023-03-18T08:20:15.457Z,23.04
2023-03-18T08:22:42.452Z,22.80
2023-03-18T08:25:10.079Z,23.32
2023-03-18T08:27:37.233Z,24.07
2023-03-18T08:30:04.968Z,24.57
2023-03-18T08:32:32.664Z,25.18
2023-03-18T08:34:59.915Z,24.40
2023-03-18T08:37:28.542Z,24.32
2023-03-18T08:39:55.714Z,25.30
2023-03-18T08:42:22.957Z,26.16
2023-03-18T08:44:51.133Z,25.34
2023-03-18T08:47:18.328Z,25.30
2023-03-18T08:49:45.527Z,27.41
2023-03-18T08:52:13.195Z,27.94
2023-03-18T08:54:40.307Z,27.11
2023-03-18T08:57:07.447Z,27.54
2023-03-18T08:59:34.485Z,28.48
2023-03-18T09:02:01.682Z,28.88
2023-03-18T09:04:29.506Z,27.43
2023-03-18T09:06:57.214Z,28.88
2023-03-18T09:09:31.086Z,28.83
2023-03-18T09:12:05.749Z,29.29
2023-03-18T09:14:33.258Z,29.13
2023-03-18T09:17:01.093Z,28.83
2023-03-18T09:19:28.551Z,28.74
2023-03-18T09:21:56.167Z,29.08
2023-03-18T09:24:23.557Z,29.69
2023-03-18T09:26:50.720Z,29.23
2023-03-18T09:29:17.837Z,29.08
2023-03-18T09:31:45.264Z,29.58
2023-03-18T09:34:13.697Z,29.59
2023-03-18T09:36:41.239Z,30.21
2023-03-18T09:39:10.156Z,29.64
2023-03-18T09:41:52.698Z,29.56
2023-03-18T09:44:29.734Z,30.59
2023-03-18T09:47:00.313Z,30.64
2023-03-18T09:49:50.078Z,31.15
2023-03-18T09:52:33.012Z,32.71
2023-03-18T09:55:23.987Z,32.79
2023-03-18T09:57:54.447Z,30.58
2023-03-18T10:00:37.133Z,30.82
2023-03-18T10:03:20.563Z,30.17
2023-03-18T10:05:59.365Z,28.72
2023-03-18T10:08:36.452Z,31.49
2023-03-18T10:11:06.800Z,33.09
2023-03-18T10:13:37.318Z,31.82
2023-03-18T10:16:07.376Z,32.01
2023-03-18T10:18:35.942Z,31.97
2023-03-18T10:21:12.122Z,28.90
2023-03-18T10:24:21.342Z,29.93
2023-03-18T10:26:52.569Z,30.63
2023-03-18T10:29:44.188Z,31.12
2023-03-18T10:32:17.346Z,31.49
2023-03-18T10:35:09.526Z,32.19
2023-03-18T10:37:57.847Z,28.46
2023-03-18T10:40:25.798Z,26.53
2023-03-18T10:42:54.126Z,25.76
2023-03-18T10:45:28.320Z,26.32
2023-03-18T10:48:28.435Z,28.19
2023-03-18T10:51:34.661Z,29.33
2023-03-18T10:54:19.363Z,29.17
2023-03-18T10:56:46.746Z,29.08
2023-03-18T10:59:16.579Z,29.38
2023-03-18T11:01:50.459Z,29.88
2023-03-18T11:04:21.647Z,28.85
2023-03-18T11:06:58.876Z,28.80
2023-03-18T11:09:32.835Z,28.69
2023-03-18T11:12:05.976Z,29.60
2023-03-18T11:14:33.987Z,28.61
2023-03-18T11:17:05.814Z,28.04
2023-03-18T11:19:41.923Z,27.51
2023-03-18T11:22:23.785Z,27.70
2023-03-18T11:25:23.190Z,27.03
2023-03-18T11:28:12.566Z,27.79
2023-03-18T11:30:48.932Z,27.35
2023-03-18T11:33:17.612Z,28.02
2023-03-18T11:35:55.415Z,28.22
2023-03-18T11:38:29.385Z,26.57
2023-03-18T11:41:15.312Z,27.96
2023-03-18T11:44:16.300Z,28.06
2023-03-18T11:46:53.544Z,25.55
2023-03-18T11:49:24.314Z,25.89
2023-03-18T11:52:09.555Z,26.39
2023-03-18T11:54:49.256Z,27.26
2023-03-18T11:57:32.406Z,28.19
2023-03-18T12:00:17.690Z,26.90
2023-03-18T12:02:53.881Z,27.14
2023-03-18T12:05:34.652Z,25.59
2023-03-18T12:08:23.127Z,25.55
2023-03-18T12:11:06.591Z,25.82
2023-03-18T12:14:18.773Z,25.33
2023-03-18T12:17:08.396Z,25.63
2023-03-18T12:19:44.567Z,25.77
2023-03-18T12:22:39.583Z,25.58
2023-03-18T12:25:45.633Z,24.97
2023-03-18T12:28:21.989Z,24.48
2023-03-18T12:31:01.929Z,23.48
2023-03-18T12:33:48.147Z,22.59
2023-03-18T12:36:22.714Z,23.23
2023-03-18T12:38:49.717Z,23.47
2023-03-18T12:41:51.043Z,24.07
2023-03-18T12:44:36.638Z,23.44
2023-03-18T12:47:19.038Z,22.93
2023-03-18T12:49:52.116Z,22.30
2023-03-18T12:52:35.893Z,22.29
2023-03-18T12:55:31.597Z,22.31
2023-03-18T12:58:11.023Z,21.54
2023-03-18T13:00:49.304Z,21.41
2023-03-18T13:03:34.317Z,20.87
2023-03-18T13:06:07.860Z,20.77
2023-03-18T13:08:46.982Z,19.81
2023-03-18T13:11:46.079Z,19.30
2023-03-18T13:14:17.788Z,19.13
2023-03-18T13:16:46.660Z,18.59
2023-03-18T13:19:13.980Z,18.56
2023-03-18T13:21:47.822Z,18.91
2023-03-18T13:24:52.710Z,18.65
2023-03-18T13:27:35.266Z,18.64
2023-03-18T13:30:17.710Z,19.17
2023-03-18T13:32:44.901Z,18.78
2023-03-18T13:35:33.625Z,17.86
2023-03-18T13:38:10.899Z,17.20
2023-03-18T13:40:53.092Z,17.25
2023-03-18T13:43:22.934Z,17.66
2023-03-18T13:45:55.597Z,17.88
2023-03-18T13:48:33.811Z,17.86
2023-03-18T13:51:19.234Z,17.54
2023-03-18T13:53:47.635Z,17.46
2023-03-18T13:56:30.065Z,17.33
2023-03-18T13:58:57.780Z,17.27
2023-03-18T14:01:25.030Z,16.91
2023-03-18T14:03:59.155Z,17.07
2023-03-18T14:06:35.661Z,17.24
2023-03-18T14:09:25.992Z,17.28
2023-03-18T14:11:53.548Z,17.09
2023-03-18T14:14:39.608Z,16.49
2023-03-18T14:17:17.028Z,16.16
2023-03-18T14:19:45.326Z,15.96
2023-03-18T14:22:38.165Z,16.23
2023-03-18T14:25:22.737Z,16.27
2023-03-18T14:28:14.818Z,16.38
2023-03-18T14:31:18.809Z,15.91
2023-03-18T14:34:18.150Z,15.87
2023-03-18T14:36:46.977Z,15.55
2023-03-18T14:39:24.065Z,15.42
2023-03-18T14:41:54.800Z,15.49
2023-03-18T14:44:31.283Z,15.73
2023-03-18T14:47:06.750Z,15.79
2023-03-18T14:49:46.163Z,15.68
2023-03-18T14:52:26.297Z,15.67
2023-03-18T14:54:55.126Z,15.52
2023-03-18T14:57:23.396Z,15.70
2023-03-18T14:59:50.685Z,15.72
2023-03-18T15:02:26.428Z,15.45
2023-03-18T15:04:56.049Z,15.49
2023-03-18T15:07:32.532Z,15.21
2023-03-18T15:10:12.904Z,15.17
2023-03-18T15:12:40.118Z,15.33
2023-03-18T15:15:12.844Z,14.98
2023-03-18T15:17:39.891Z,14.65
2023-03-18T15:20:12.012Z,14.72
2023-03-18T15:22:39.285Z,14.90
2023-03-18T15:25:08.587Z,14.91
2023-03-18T15:27:36.561Z,14.75
2023-03-18T15:30:06.887Z,14.51
2023-03-18T15:32:49.873Z,14.44
2023-03-18T15:35:26.700Z,14.51
2023-03-18T15:38:17.579Z,14.09
2023-03-18T15:40:44.787Z,14.18
2023-03-18T15:43:11.781Z,14.44
2023-03-18T15:45:45.711Z,14.43
2023-03-18T15:48:26.997Z,14.38
2023-03-18T15:50:56.886Z,14.35
2023-03-18T15:53:27.891Z,14.18
2023-03-18T15:55:55.699Z,14.07
2023-03-18T15:58:37.349Z,13.97
2023-03-18T16:01:05.557Z,13.85
2023-03-18T16:03:34.812Z,13.74
2023-03-18T16:06:02.367Z,13.46
2023-03-18T16:08:29.476Z,13.47
2023-03-18T16:11:01.222Z,13.38
2023-03-18T16:13:30.559Z,13.14
2023-03-18T16:15:58.428Z,12.93
2023-03-18T16:18:26.047Z,12.65
2023-03-18T16:20:54.210Z,12.46
2023-03-18T16:23:22.027Z,12.42
2023-03-18T16:25:52.247Z,12.34
2023-03-18T16:28:25.036Z,12.28
2023-03-18T16:30:54.372Z,12.13
2023-03-18T16:33:22.737Z,12.18
2023-03-18T16:35:59.173Z,12.11
2023-03-18T16:38:27.259Z,12.07
2023-03-18T16:40:55.952Z,11.89
2023-03-18T16:43:27.069Z,11.90
2023-03-18T16:46:00.082Z,11.92
2023-03-18T16:48:27.689Z,11.92
2023-03-18T16:50:56.910Z,11.90
2023-03-18T16:53:24.644Z,11.64
2023-03-18T16:55:57.806Z,11.47
2023-03-18T16:58:29.162Z,11.41
2023-03-18T17:00:57.124Z,11.30
2023-03-18T17:03:24.257Z,11.30
2023-03-18T17:05:52.145Z,11.24
2023-03-18T17:08:20.893Z,11.22
2023-03-18T17:10:49.935Z,11.10
2023-03-18T17:13:31.105Z,10.78
2023-03-18T17:15:58.628Z,10.61
2023-03-18T17:18:26.140Z,10.51
2023-03-18T17:20:53.384Z,10.30
2023-03-18T17:23:22.798Z,10.40
2023-03-18T17:25:53.454Z,10.44
2023-03-18T17:28:35.913Z,10.42
2023-03-18T17:31:03.450Z,10.09
2023-03-18T17:33:33.431Z,9.86
2023-03-18T17:36:01.922Z,9.73
2023-03-18T17:38:31.128Z,9.66
2023-03-18T17:41:00.804Z,9.49
2023-03-18T17:43:29.253Z,9.44
2023-03-18T17:45:57.469Z,9.58
2023-03-18T17:48:27.682Z,9.56
2023-03-18T17:51:00.196Z,9.47
2023-03-18T17:53:27.491Z,9.49
2023-03-18T17:55:55.201Z,9.37
2023-03-18T17:58:26.107Z,9.59
2023-03-18T18:00:54.146Z,9.74
2023-03-18T18:03:27.612Z,9.65
2023-03-18T18:05:56.673Z,9.51
2023-03-18T18:08:25.652Z,9.53
2023-03-18T18:10:58.260Z,9.30
2023-03-18T18:13:25.451Z,8.93
2023-03-18T18:15:52.915Z,8.92
2023-03-18T18:18:26.659Z,8.94
2023-03-18T18:21:04.671Z,8.62
2023-03-18T18:23:37.479Z,8.64
2023-03-18T18:26:07.480Z,8.72
2023-03-18T18:28:36.760Z,8.47
2023-03-18T18:31:05.505Z,8.37
2023-03-18T18:33:33.758Z,8.36
2023-03-18T18:36:01.530Z,8.34
2023-03-18T18:38:29.233Z,8.27
2023-03-18T18:40:57.633Z,8.40
2023-03-18T18:43:25.606Z,8.23
2023-03-18T18:45:54.226Z,8.12
2023-03-18T18:48:33.496Z,8.08
2023-03-18T18:51:02.051Z,8.07
2023-03-18T18:53:35.880Z,8.10
2023-03-18T18:56:13.192Z,7.82
2023-03-18T18:58:40.493Z,7.77
2023-03-18T19:01:07.923Z,7.58
2023-03-18T19:03:35.160Z,7.67
2023-03-18T19:06:04.839Z,7.78
2023-03-18T19:08:36.221Z,7.95
2023-03-18T19:11:08.031Z,7.98
2023-03-18T19:13:37.622Z,8.01
2023-03-18T19:16:08.475Z,8.05
2023-03-18T19:18:40.590Z,8.11
2023-03-18T19:21:08.210Z,7.93
2023-03-18T19:23:35.886Z,7.78
2023-03-18T19:26:04.484Z,7.69
2023-03-18T19:28:57.750Z,7.67
2023-03-18T19:31:30.514Z,7.72
2023-03-18T19:33:59.601Z,7.75
2023-03-18T19:36:26.644Z,7.77
2023-03-18T19:39:02.204Z,7.66
2023-03-18T19:41:30.040Z,7.47
2023-03-18T19:44:11.603Z,7.46
2023-03-18T19:46:39.645Z,7.57
2023-03-18T19:49:21.772Z,7.58
2023-03-18T19:51:50.199Z,7.51
2023-03-18T19:54:33.668Z,7.37
2023-03-18T19:57:06.834Z,7.65
2023-03-18T19:59:39.331Z,7.66
2023-03-18T20:02:21.072Z,7.73
2023-03-18T20:04:53.431Z,7.72
2023-03-18T20:07:23.000Z,7.81
2023-03-18T20:09:50.657Z,7.69
2023-03-18T20:12:35.021Z,7.55
2023-03-18T20:15:04.625Z,7.71
2023-03-18T20:17:40.233Z,7.54
2023-03-18T20:20:12.063Z,7.30
2023-03-18T20:22:42.209Z,7.23
2023-03-18T20:25:24.251Z,7.24
2023-03-18T20:27:53.644Z,7.32
2023-03-18T20:30:30.830Z,7.29
2023-03-18T20:32:58.464Z,7.24
2023-03-18T20:35:30.108Z,7.58
2023-03-18T20:37:59.135Z,7.65
2023-03-18T20:40:28.317Z,7.49
2023-03-18T20:42:56.158Z,7.48
2023-03-18T20:45:24.715Z,7.35
2023-03-18T20:47:51.798Z,7.31
2023-03-18T20:50:21.231Z,7.21
2023-03-18T20:52:48.589Z,7.30
2023-03-18T20:55:33.674Z,7.15
2023-03-18T20:58:01.924Z,7.22
2023-03-18T21:00:32.854Z,7.10
2023-03-18T21:03:02.191Z,7.07
2023-03-18T21:05:29.390Z,7.16
2023-03-18T21:07:56.759Z,7.07
2023-03-18T21:10:25.924Z,7.29
2023-03-18T21:12:53.457Z,7.37
2023-03-18T21:15:23.308Z,7.64
2023-03-18T21:17:51.018Z,7.43
2023-03-18T21:20:22.372Z,7.39
2023-03-18T21:22:50.595Z,7.30
2023-03-18T21:25:21.846Z,7.17
2023-03-18T21:27:49.883Z,7.07
2023-03-18T21:30:18.573Z,7.31
2023-03-18T21:32:46.438Z,7.46
2023-03-18T21:35:19.998Z,7.62
2023-03-18T21:37:47.230Z,7.48
2023-03-18T21:40:27.420Z,7.62
2023-03-18T21:42:54.729Z,7.24
2023-03-18T21:45:23.914Z,7.04
2023-03-18T21:47:52.725Z,7.01
2023-03-18T21:50:26.290Z,6.98
2023-03-18T21:52:54.717Z,6.79
2023-03-18T21:55:22.249Z,6.88
2023-03-18T21:57:49.724Z,7.05
2023-03-18T22:00:20.145Z,6.65
2023-03-18T22:02:48.223Z,6.66
2023-03-18T22:05:23.766Z,6.48
2023-03-18T22:07:51.749Z,6.75
2023-03-18T22:10:23.276Z,6.79
2023-03-18T22:12:50.687Z,6.76
2023-03-18T22:15:23.748Z,7.20
2023-03-18T22:17:51.597Z,7.05
2023-03-18T22:20:19.032Z,7.00
2023-03-18T22:22:47.362Z,7.03
2023-03-18T22:25:37.298Z,6.99
2023-03-18T22:28:05.002Z,6.73
2023-03-18T22:30:34.072Z,7.04
2023-03-18T22:33:03.838Z,7.29
2023-03-18T22:35:31.244Z,7.44
2023-03-18T22:37:58.575Z,7.30
2023-03-18T22:40:28.716Z,7.04
2023-03-18T22:42:58.251Z,7.19
2023-03-18T22:45:30.637Z,7.33
2023-03-18T22:48:01.000Z,7.43
2023-03-18T22:50:30.626Z,7.13
2023-03-18T22:53:03.979Z,7.02
2023-03-18T22:55:39.257Z,7.20
2023-03-18T22:58:06.958Z,7.20
2023-03-18T23:00:39.597Z,7.37
2023-03-18T23:03:15.149Z,7.59
2023-03-18T23:05:42.363Z,7.58
2023-03-18T23:08:09.816Z,7.63
2023-03-18T23:10:37.949Z,7.63
2023-03-18T23:13:31.344Z,7.19
2023-03-18T23:15:58.570Z,7.10
2023-03-18T23:18:25.702Z,7.37
2023-03-18T23:20:52.849Z,7.26
2023-03-18T23:23:21.653Z,7.40
2023-03-18T23:25:50.814Z,7.62
2023-03-18T23:28:18.278Z,7.57
2023-03-18T23:30:48.547Z,7.55
2023-03-18T23:33:17.374Z,7.44
2023-03-18T23:35:45.645Z,7.70
2023-03-18T23:38:12.755Z,7.95
2023-03-18T23:40:39.990Z,7.98
2023-03-18T23:43:09.109Z,7.77
2023-03-18T23:45:38.108Z,7.76
2023-03-18T23:48:06.219Z,7.82
2023-03-18T23:50:33.592Z,7.67
2023-03-18T23:53:01.067Z,7.63
2023-03-18T23:55:34.530Z,7.62
2023-03-18T23:58:12.476Z,7.66
